sensor_id;sensor_type;location;lat;lon;timestamp;P1;durP1;ratioP1;P2;durP2;ratioP2
23814;SDS011;12088;53.078;8.720;2022-09-09T00:00:39;1.50;;;1.40;;
23814;SDS011;12088;53.078;8.720;2022-09-09T00:03:27;1.43;;;1.33;;
23814;SDS011;12088;53.078;8.720;2022-09-09T00:06:19;2.17;;;2.00;;
23814;SDS011;12088;53.078;8.720;2022-09-09T00:09:00;2.47;;;1.87;;
23814;SDS011;12088;53.078;8.720;2022-09-09T00:11:42;2.67;;;2.47;;
23814;SDS011;12088;53.078;8.720;2022-09-09T00:16:58;1.37;;;1.27;;
23814;SDS011;12088;53.078;8.720;2022-09-09T00:19:49;3.13;;;1.53;;
23814;SDS011;12088;53.078;8.720;2022-09-09T00:22:34;3.30;;;2.27;;
23814;SDS011;12088;53.078;8.720;2022-09-09T00:25:08;1.87;;;1.77;;
23814;SDS011;12088;53.078;8.720;2022-09-09T00:27:45;2.50;;;2.20;;
23814;SDS011;12088;53.078;8.720;2022-09-09T00:30:23;7.77;;;2.87;;
23814;SDS011;12088;53.078;8.720;2022-09-09T00:32:54;2.00;;;1.57;;
23814;SDS011;12088;53.078;8.720;2022-09-09T00:35:25;2.20;;;2.00;;
23814;SDS011;12088;53.078;8.720;2022-09-09T00:37:58;2.57;;;2.37;;
23814;SDS011;12088;53.078;8.720;2022-09-09T00:40:35;2.27;;;2.07;;
23814;SDS011;12088;53.078;8.720;2022-09-09T00:45:57;2.17;;;1.97;;
23814;SDS011;12088;53.078;8.720;2022-09-09T00:51:59;4.23;;;2.60;;
23814;SDS011;12088;53.078;8.720;2022-09-09T00:57:34;6.87;;;3.67;;
23814;SDS011;12088;53.078;8.720;2022-09-09T01:02:53;2.83;;;2.00;;
23814;SDS011;12088;53.078;8.720;2022-09-09T01:05:30;3.60;;;3.30;;
23814;SDS011;12088;53.078;8.720;2022-09-09T01:08:04;3.43;;;2.13;;
23814;SDS011;12088;53.078;8.720;2022-09-09T01:10:39;2.97;;;2.53;;
23814;SDS011;12088;53.078;8.720;2022-09-09T01:13:27;4.33;;;3.17;;
23814;SDS011;12088;53.078;8.720;2022-09-09T01:15:55;3.27;;;2.97;;
23814;SDS011;12088;53.078;8.720;2022-09-09T01:18:25;1.90;;;1.80;;
23814;SDS011;12088;53.078;8.720;2022-09-09T01:28:45;2.97;;;2.73;;
23814;SDS011;12088;53.078;8.720;2022-09-09T01:31:18;5.40;;;3.33;;
23814;SDS011;12088;53.078;8.720;2022-09-09T01:33:46;4.17;;;3.67;;
23814;SDS011;12088;53.078;8.720;2022-09-09T01:36:18;3.43;;;3.13;;
23814;SDS011;12088;53.078;8.720;2022-09-09T01:38:49;4.10;;;2.47;;
23814;SDS011;12088;53.078;8.720;2022-09-09T01:41:14;2.93;;;2.70;;
23814;SDS011;12088;53.078;8.720;2022-09-09T01:43:40;2.40;;;2.20;;
23814;SDS011;12088;53.078;8.720;2022-09-09T01:46:05;1.97;;;1.83;;
23814;SDS011;12088;53.078;8.720;2022-09-09T01:48:32;2.20;;;2.00;;
23814;SDS011;12088;53.078;8.720;2022-09-09T01:50:58;3.90;;;2.93;;
23814;SDS011;12088;53.078;8.720;2022-09-09T01:53:24;2.93;;;2.20;;
23814;SDS011;12088;53.078;8.720;2022-09-09T01:56:02;3.03;;;2.20;;
23814;SDS011;12088;53.078;8.720;2022-09-09T02:04:36;4.73;;;2.47;;
23814;SDS011;12088;53.078;8.720;2022-09-09T02:07:10;3.90;;;2.90;;
23814;SDS011;12088;53.078;8.720;2022-09-09T02:09:39;3.10;;;2.90;;
23814;SDS011;12088;53.078;8.720;2022-09-09T02:12:11;2.87;;;2.57;;
23814;SDS011;12088;53.078;8.720;2022-09-09T02:14:43;3.13;;;2.83;;
23814;SDS011;12088;53.078;8.720;2022-09-09T02:17:16;8.17;;;4.17;;
23814;SDS011;12088;53.078;8.720;2022-09-09T02:19:49;8.90;;;3.13;;
23814;SDS011;12088;53.078;8.720;2022-09-09T02:22:20;2.37;;;2.17;;
23814;SDS011;12088;53.078;8.720;2022-09-09T02:24:49;5.00;;;2.23;;
23814;SDS011;12088;53.078;8.720;2022-09-09T02:27:19;5.40;;;2.90;;
23814;SDS011;12088;53.078;8.720;2022-09-09T02:29:46;3.47;;;1.67;;
23814;SDS011;12088;53.078;8.720;2022-09-09T02:32:16;5.90;;;2.97;;
23814;SDS011;12088;53.078;8.720;2022-09-09T02:34:48;4.50;;;2.73;;
23814;SDS011;12088;53.078;8.720;2022-09-09T02:37:17;2.53;;;2.33;;
23814;SDS011;12088;53.078;8.720;2022-09-09T02:39:46;3.80;;;2.03;;
23814;SDS011;12088;53.078;8.720;2022-09-09T02:42:12;3.03;;;2.57;;
23814;SDS011;12088;53.078;8.720;2022-09-09T02:44:39;2.83;;;2.60;;
23814;SDS011;12088;53.078;8.720;2022-09-09T02:47:17;3.47;;;3.03;;
23814;SDS011;12088;53.078;8.720;2022-09-09T02:50:00;3.43;;;2.07;;
23814;SDS011;12088;53.078;8.720;2022-09-09T02:55:47;1.20;;;1.10;;
23814;SDS011;12088;53.078;8.720;2022-09-09T02:58:19;2.47;;;2.10;;
23814;SDS011;12088;53.078;8.720;2022-09-09T03:00:47;3.40;;;3.10;;
23814;SDS011;12088;53.078;8.720;2022-09-09T03:03:15;2.23;;;2.03;;
23814;SDS011;12088;53.078;8.720;2022-09-09T03:05:42;2.33;;;1.73;;
23814;SDS011;12088;53.078;8.720;2022-09-09T03:08:08;2.40;;;2.20;;
23814;SDS011;12088;53.078;8.720;2022-09-09T03:10:34;3.07;;;2.00;;
23814;SDS011;12088;53.078;8.720;2022-09-09T03:13:00;2.33;;;2.13;;
23814;SDS011;12088;53.078;8.720;2022-09-09T03:15:26;3.50;;;1.80;;
23814;SDS011;12088;53.078;8.720;2022-09-09T03:17:55;2.40;;;2.07;;
23814;SDS011;12088;53.078;8.720;2022-09-09T03:20:21;2.93;;;2.67;;
23814;SDS011;12088;53.078;8.720;2022-09-09T03:22:48;1.57;;;1.47;;
23814;SDS011;12088;53.078;8.720;2022-09-09T03:25:13;3.47;;;2.70;;
23814;SDS011;12088;53.078;8.720;2022-09-09T03:27:39;1.93;;;1.83;;
23814;SDS011;12088;53.078;8.720;2022-09-09T03:30:05;2.40;;;2.20;;
23814;SDS011;12088;53.078;8.720;2022-09-09T03:32:32;3.23;;;1.83;;
23814;SDS011;12088;53.078;8.720;2022-09-09T03:34:57;7.50;;;2.80;;
23814;SDS011;12088;53.078;8.720;2022-09-09T03:37:23;2.20;;;2.00;;
23814;SDS011;12088;53.078;8.720;2022-09-09T03:39:48;2.40;;;1.70;;
23814;SDS011;12088;53.078;8.720;2022-09-09T03:42:14;3.03;;;2.73;;
23814;SDS011;12088;53.078;8.720;2022-09-09T03:44:43;1.57;;;1.17;;
23814;SDS011;12088;53.078;8.720;2022-09-09T03:47:12;2.63;;;1.97;;
23814;SDS011;12088;53.078;8.720;2022-09-09T03:49:38;1.37;;;1.27;;
23814;SDS011;12088;53.078;8.720;2022-09-09T03:52:03;4.27;;;3.47;;
23814;SDS011;12088;53.078;8.720;2022-09-09T03:54:29;4.30;;;2.07;;
23814;SDS011;12088;53.078;8.720;2022-09-09T03:56:54;2.33;;;1.53;;
23814;SDS011;12088;53.078;8.720;2022-09-09T03:59:20;1.40;;;1.30;;
23814;SDS011;12088;53.078;8.720;2022-09-09T04:01:46;1.97;;;1.33;;
23814;SDS011;12088;53.078;8.720;2022-09-09T04:04:12;3.90;;;2.20;;
23814;SDS011;12088;53.078;8.720;2022-09-09T04:06:38;2.77;;;2.53;;
23814;SDS011;12088;53.078;8.720;2022-09-09T04:09:03;1.47;;;1.40;;
23814;SDS011;12088;53.078;8.720;2022-09-09T04:11:29;1.33;;;1.23;;
23814;SDS011;12088;53.078;8.720;2022-09-09T04:13:55;2.47;;;1.27;;
23814;SDS011;12088;53.078;8.720;2022-09-09T04:16:20;1.43;;;1.33;;
23814;SDS011;12088;53.078;8.720;2022-09-09T04:18:46;1.10;;;1.10;;
23814;SDS011;12088;53.078;8.720;2022-09-09T04:21:12;1.67;;;1.57;;
23814;SDS011;12088;53.078;8.720;2022-09-09T04:23:37;4.10;;;2.13;;
23814;SDS011;12088;53.078;8.720;2022-09-09T04:26:04;2.60;;;2.40;;
23814;SDS011;12088;53.078;8.720;2022-09-09T04:28:31;1.57;;;1.30;;
23814;SDS011;12088;53.078;8.720;2022-09-09T04:31:03;1.17;;;0.97;;
23814;SDS011;12088;53.078;8.720;2022-09-09T04:33:34;1.47;;;1.37;;
23814;SDS011;12088;53.078;8.720;2022-09-09T04:36:00;2.93;;;1.70;;
23814;SDS011;12088;53.078;8.720;2022-09-09T04:38:25;1.63;;;1.33;;
23814;SDS011;12088;53.078;8.720;2022-09-09T04:40:51;1.73;;;1.20;;
23814;SDS011;12088;53.078;8.720;2022-09-09T04:43:18;1.83;;;1.73;;
23814;SDS011;12088;53.078;8.720;2022-09-09T04:45:47;1.43;;;1.33;;
23814;SDS011;12088;53.078;8.720;2022-09-09T04:48:13;1.80;;;1.37;;
23814;SDS011;12088;53.078;8.720;2022-09-09T04:50:39;3.47;;;2.17;;
23814;SDS011;12088;53.078;8.720;2022-09-09T04:53:05;2.70;;;2.17;;
23814;SDS011;12088;53.078;8.720;2022-09-09T04:55:32;1.60;;;1.50;;
23814;SDS011;12088;53.078;8.720;2022-09-09T04:58:02;3.50;;;1.40;;
23814;SDS011;12088;53.078;8.720;2022-09-09T05:00:31;2.27;;;1.50;;
23814;SDS011;12088;53.078;8.720;2022-09-09T05:03:02;1.47;;;1.37;;
23814;SDS011;12088;53.078;8.720;2022-09-09T05:05:29;1.07;;;1.00;;
23814;SDS011;12088;53.078;8.720;2022-09-09T05:07:59;2.30;;;1.60;;
23814;SDS011;12088;53.078;8.720;2022-09-09T05:10:26;1.50;;;1.17;;
23814;SDS011;12088;53.078;8.720;2022-09-09T05:12:52;2.23;;;1.43;;
23814;SDS011;12088;53.078;8.720;2022-09-09T05:15:19;2.47;;;1.50;;
23814;SDS011;12088;53.078;8.720;2022-09-09T05:17:45;0.90;;;0.90;;
23814;SDS011;12088;53.078;8.720;2022-09-09T05:20:11;21.80;;;1.87;;
23814;SDS011;12088;53.078;8.720;2022-09-09T05:22:37;1.33;;;1.27;;
23814;SDS011;12088;53.078;8.720;2022-09-09T05:25:02;4.30;;;2.17;;
23814;SDS011;12088;53.078;8.720;2022-09-09T05:27:28;1.37;;;1.27;;
23814;SDS011;12088;53.078;8.720;2022-09-09T05:29:56;1.40;;;1.20;;
23814;SDS011;12088;53.078;8.720;2022-09-09T05:32:22;2.23;;;2.00;;
23814;SDS011;12088;53.078;8.720;2022-09-09T05:34:48;1.57;;;1.47;;
23814;SDS011;12088;53.078;8.720;2022-09-09T05:37:13;1.10;;;1.00;;
23814;SDS011;12088;53.078;8.720;2022-09-09T05:39:39;1.97;;;1.40;;
23814;SDS011;12088;53.078;8.720;2022-09-09T05:42:04;1.10;;;1.00;;
23814;SDS011;12088;53.078;8.720;2022-09-09T05:44:30;2.57;;;1.37;;
23814;SDS011;12088;53.078;8.720;2022-09-09T05:46:56;1.17;;;1.07;;
23814;SDS011;12088;53.078;8.720;2022-09-09T05:49:22;1.27;;;1.17;;
23814;SDS011;12088;53.078;8.720;2022-09-09T05:51:48;4.47;;;1.37;;
23814;SDS011;12088;53.078;8.720;2022-09-09T05:54:15;2.07;;;1.50;;
23814;SDS011;12088;53.078;8.720;2022-09-09T05:56:41;3.20;;;2.07;;
23814;SDS011;12088;53.078;8.720;2022-09-09T05:59:06;2.23;;;1.70;;
23814;SDS011;12088;53.078;8.720;2022-09-09T06:01:33;0.90;;;0.90;;
23814;SDS011;12088;53.078;8.720;2022-09-09T06:04:00;1.53;;;1.27;;
23814;SDS011;12088;53.078;8.720;2022-09-09T06:06:27;1.83;;;1.73;;
23814;SDS011;12088;53.078;8.720;2022-09-09T06:09:00;6.43;;;1.80;;
23814;SDS011;12088;53.078;8.720;2022-09-09T06:11:28;4.73;;;1.23;;
23814;SDS011;12088;53.078;8.720;2022-09-09T06:14:01;1.93;;;1.57;;
23814;SDS011;12088;53.078;8.720;2022-09-09T06:16:27;2.47;;;1.40;;
23814;SDS011;12088;53.078;8.720;2022-09-09T06:18:54;1.33;;;1.23;;
23814;SDS011;12088;53.078;8.720;2022-09-09T06:21:22;2.60;;;1.73;;
23814;SDS011;12088;53.078;8.720;2022-09-09T06:23:49;1.87;;;1.37;;
23814;SDS011;12088;53.078;8.720;2022-09-09T06:26:21;3.13;;;1.53;;
23814;SDS011;12088;53.078;8.720;2022-09-09T06:28:51;1.60;;;1.50;;
23814;SDS011;12088;53.078;8.720;2022-09-09T06:31:18;7.80;;;1.53;;
23814;SDS011;12088;53.078;8.720;2022-09-09T06:33:48;1.87;;;1.43;;
23814;SDS011;12088;53.078;8.720;2022-09-09T06:36:16;2.83;;;1.50;;
23814;SDS011;12088;53.078;8.720;2022-09-09T06:38:46;2.33;;;1.97;;
23814;SDS011;12088;53.078;8.720;2022-09-09T06:41:13;2.23;;;1.50;;
23814;SDS011;12088;53.078;8.720;2022-09-09T06:43:40;1.60;;;1.23;;
23814;SDS011;12088;53.078;8.720;2022-09-09T06:46:08;6.57;;;2.00;;
23814;SDS011;12088;53.078;8.720;2022-09-09T06:48:36;1.57;;;1.47;;
23814;SDS011;12088;53.078;8.720;2022-09-09T06:51:04;2.70;;;1.30;;
23814;SDS011;12088;53.078;8.720;2022-09-09T06:53:32;1.10;;;1.10;;
23814;SDS011;12088;53.078;8.720;2022-09-09T06:55:59;1.73;;;1.27;;
23814;SDS011;12088;53.078;8.720;2022-09-09T06:58:42;1.07;;;1.07;;
23814;SDS011;12088;53.078;8.720;2022-09-09T07:01:09;2.60;;;1.70;;
23814;SDS011;12088;53.078;8.720;2022-09-09T07:03:37;6.60;;;2.33;;
23814;SDS011;12088;53.078;8.720;2022-09-09T07:06:03;4.63;;;1.57;;
23814;SDS011;12088;53.078;8.720;2022-09-09T07:08:29;9.57;;;1.93;;
23814;SDS011;12088;53.078;8.720;2022-09-09T07:11:01;1.80;;;1.53;;
23814;SDS011;12088;53.078;8.720;2022-09-09T07:13:31;1.97;;;1.77;;
23814;SDS011;12088;53.078;8.720;2022-09-09T07:16:07;1.47;;;1.10;;
23814;SDS011;12088;53.078;8.720;2022-09-09T07:18:35;1.83;;;1.50;;
23814;SDS011;12088;53.078;8.720;2022-09-09T07:21:01;1.53;;;1.47;;
23814;SDS011;12088;53.078;8.720;2022-09-09T07:23:28;2.73;;;1.90;;
23814;SDS011;12088;53.078;8.720;2022-09-09T07:25:54;2.07;;;1.90;;
23814;SDS011;12088;53.078;8.720;2022-09-09T07:28:20;2.03;;;1.83;;
23814;SDS011;12088;53.078;8.720;2022-09-09T07:31:20;2.73;;;2.00;;
23814;SDS011;12088;53.078;8.720;2022-09-09T07:33:40;6.67;;;1.57;;
23814;SDS011;12088;53.078;8.720;2022-09-09T07:36:10;2.73;;;2.17;;
23814;SDS011;12088;53.078;8.720;2022-09-09T07:41:10;8.70;;;2.40;;
23814;SDS011;12088;53.078;8.720;2022-09-09T07:43:40;1.57;;;1.47;;
23814;SDS011;12088;53.078;8.720;2022-09-09T07:46:10;1.37;;;1.17;;
23814;SDS011;12088;53.078;8.720;2022-09-09T07:48:36;9.53;;;2.37;;
23814;SDS011;12088;53.078;8.720;2022-09-09T07:51:07;2.10;;;1.90;;
23814;SDS011;12088;53.078;8.720;2022-09-09T07:53:33;4.47;;;2.50;;
23814;SDS011;12088;53.078;8.720;2022-09-09T07:56:04;2.20;;;1.90;;
23814;SDS011;12088;53.078;8.720;2022-09-09T07:58:34;3.70;;;1.73;;
23814;SDS011;12088;53.078;8.720;2022-09-09T08:01:05;2.93;;;1.83;;
23814;SDS011;12088;53.078;8.720;2022-09-09T08:03:31;5.17;;;2.23;;
23814;SDS011;12088;53.078;8.720;2022-09-09T08:06:00;2.47;;;1.67;;
23814;SDS011;12088;53.078;8.720;2022-09-09T08:08:27;2.70;;;1.10;;
23814;SDS011;12088;53.078;8.720;2022-09-09T08:10:53;3.17;;;1.83;;
23814;SDS011;12088;53.078;8.720;2022-09-09T08:13:18;3.00;;;1.90;;
23814;SDS011;12088;53.078;8.720;2022-09-09T08:15:44;2.38;;;1.90;;
23814;SDS011;12088;53.078;8.720;2022-09-09T08:18:09;2.20;;;1.42;;
23814;SDS011;12088;53.078;8.720;2022-09-09T08:20:35;5.60;;;1.77;;
23814;SDS011;12088;53.078;8.720;2022-09-09T08:23:02;8.88;;;1.75;;
23814;SDS011;12088;53.078;8.720;2022-09-09T08:25:27;4.10;;;1.27;;
23814;SDS011;12088;53.078;8.720;2022-09-09T08:27:53;3.92;;;2.10;;
23814;SDS011;12088;53.078;8.720;2022-09-09T08:30:19;1.45;;;1.35;;
23814;SDS011;12088;53.078;8.720;2022-09-09T08:32:44;2.38;;;1.40;;
23814;SDS011;12088;53.078;8.720;2022-09-09T08:35:10;4.28;;;1.40;;
23814;SDS011;12088;53.078;8.720;2022-09-09T08:37:36;1.92;;;1.80;;
23814;SDS011;12088;53.078;8.720;2022-09-09T08:40:01;1.70;;;1.38;;
23814;SDS011;12088;53.078;8.720;2022-09-09T08:42:32;1.40;;;1.30;;
23814;SDS011;12088;53.078;8.720;2022-09-09T08:47:52;1.10;;;1.10;;
23814;SDS011;12088;53.078;8.720;2022-09-09T08:50:27;1.77;;;1.55;;
23814;SDS011;12088;53.078;8.720;2022-09-09T08:53:04;1.33;;;1.23;;
23814;SDS011;12088;53.078;8.720;2022-09-09T08:55:50;2.03;;;1.23;;
23814;SDS011;12088;53.078;8.720;2022-09-09T08:58:28;1.05;;;1.05;;
23814;SDS011;12088;53.078;8.720;2022-09-09T09:03:57;1.30;;;1.20;;
23814;SDS011;12088;53.078;8.720;2022-09-09T09:09:53;1.20;;;1.10;;
23814;SDS011;12088;53.078;8.720;2022-09-09T09:12:28;1.02;;;0.93;;
23814;SDS011;12088;53.078;8.720;2022-09-09T09:15:00;2.13;;;1.17;;
23814;SDS011;12088;53.078;8.720;2022-09-09T09:17:26;0.80;;;0.80;;
23814;SDS011;12088;53.078;8.720;2022-09-09T09:19:56;1.08;;;0.90;;
23814;SDS011;12088;53.078;8.720;2022-09-09T09:22:26;0.70;;;0.70;;
23814;SDS011;12088;53.078;8.720;2022-09-09T09:25:12;0.80;;;0.80;;
23814;SDS011;12088;53.078;8.720;2022-09-09T09:28:02;0.50;;;0.50;;
23814;SDS011;12088;53.078;8.720;2022-09-09T09:30:40;2.03;;;0.82;;
23814;SDS011;12088;53.078;8.720;2022-09-09T09:33:21;0.85;;;0.80;;
23814;SDS011;12088;53.078;8.720;2022-09-09T09:35:52;1.65;;;1.38;;
23814;SDS011;12088;53.078;8.720;2022-09-09T09:40:52;0.50;;;0.50;;
23814;SDS011;12088;53.078;8.720;2022-09-09T09:43:29;1.00;;;1.00;;
23814;SDS011;12088;53.078;8.720;2022-09-09T09:45:56;0.50;;;0.50;;
23814;SDS011;12088;53.078;8.720;2022-09-09T09:48:25;0.70;;;0.70;;
23814;SDS011;12088;53.078;8.720;2022-09-09T09:50:56;0.60;;;0.60;;
23814;SDS011;12088;53.078;8.720;2022-09-09T09:53:33;1.10;;;0.73;;
23814;SDS011;12088;53.078;8.720;2022-09-09T09:56:01;0.65;;;0.57;;
23814;SDS011;12088;53.078;8.720;2022-09-09T09:58:30;1.00;;;0.73;;
23814;SDS011;12088;53.078;8.720;2022-09-09T10:00:58;0.50;;;0.50;;
23814;SDS011;12088;53.078;8.720;2022-09-09T10:03:26;3.17;;;1.05;;
23814;SDS011;12088;53.078;8.720;2022-09-09T10:06:02;0.65;;;0.65;;
23814;SDS011;12088;53.078;8.720;2022-09-09T10:08:28;0.60;;;0.60;;
23814;SDS011;12088;53.078;8.720;2022-09-09T10:19:05;0.65;;;0.65;;
23814;SDS011;12088;53.078;8.720;2022-09-09T10:25:01;0.50;;;0.50;;
23814;SDS011;12088;53.078;8.720;2022-09-09T10:30:33;1.10;;;1.00;;
23814;SDS011;12088;53.078;8.720;2022-09-09T10:33:09;0.70;;;0.70;;
23814;SDS011;12088;53.078;8.720;2022-09-09T10:35:41;1.27;;;1.17;;
23814;SDS011;12088;53.078;8.720;2022-09-09T10:38:22;1.05;;;0.85;;
23814;SDS011;12088;53.078;8.720;2022-09-09T10:43:51;0.95;;;0.90;;
23814;SDS011;12088;53.078;8.720;2022-09-09T10:51:48;1.92;;;0.90;;
23814;SDS011;12088;53.078;8.720;2022-09-09T10:54:27;0.88;;;0.80;;
23814;SDS011;12088;53.078;8.720;2022-09-09T10:57:03;1.23;;;0.93;;
23814;SDS011;12088;53.078;8.720;2022-09-09T10:59:44;0.70;;;0.70;;
23814;SDS011;12088;53.078;8.720;2022-09-09T11:02:15;0.80;;;0.80;;
23814;SDS011;12088;53.078;8.720;2022-09-09T11:04:57;0.90;;;0.90;;
23814;SDS011;12088;53.078;8.720;2022-09-09T11:07:39;1.95;;;1.15;;
23814;SDS011;12088;53.078;8.720;2022-09-09T11:10:15;0.90;;;0.90;;
23814;SDS011;12088;53.078;8.720;2022-09-09T11:12:49;1.20;;;0.75;;
23814;SDS011;12088;53.078;8.720;2022-09-09T11:15:28;0.55;;;0.55;;
23814;SDS011;12088;53.078;8.720;2022-09-09T11:18:18;2.20;;;1.15;;
23814;SDS011;12088;53.078;8.720;2022-09-09T11:20:47;1.45;;;1.20;;
23814;SDS011;12088;53.078;8.720;2022-09-09T11:23:17;3.47;;;1.15;;
23814;SDS011;12088;53.078;8.720;2022-09-09T11:25:53;0.80;;;0.80;;
23814;SDS011;12088;53.078;8.720;2022-09-09T11:41:49;0.52;;;0.52;;
23814;SDS011;12088;53.078;8.720;2022-09-09T11:44:19;0.60;;;0.60;;
23814;SDS011;12088;53.078;8.720;2022-09-09T11:46:53;0.80;;;0.80;;
23814;SDS011;12088;53.078;8.720;2022-09-09T11:49:29;0.52;;;0.52;;
23814;SDS011;12088;53.078;8.720;2022-09-09T11:52:18;1.30;;;1.20;;
23814;SDS011;12088;53.078;8.720;2022-09-09T11:54:46;2.17;;;0.82;;
23814;SDS011;12088;53.078;8.720;2022-09-09T11:57:17;1.63;;;1.35;;
23814;SDS011;12088;53.078;8.720;2022-09-09T11:59:51;0.65;;;0.65;;
23814;SDS011;12088;53.078;8.720;2022-09-09T12:02:30;2.70;;;0.57;;
23814;SDS011;12088;53.078;8.720;2022-09-09T12:05:05;1.05;;;1.05;;
23814;SDS011;12088;53.078;8.720;2022-09-09T12:07:49;0.98;;;0.98;;
23814;SDS011;12088;53.078;8.720;2022-09-09T12:13:18;4.38;;;1.88;;
23814;SDS011;12088;53.078;8.720;2022-09-09T12:15:52;0.70;;;0.65;;
23814;SDS011;12088;53.078;8.720;2022-09-09T12:18:22;3.80;;;1.23;;
23814;SDS011;12088;53.078;8.720;2022-09-09T12:23:54;12.53;;;0.90;;
23814;SDS011;12088;53.078;8.720;2022-09-09T12:29:01;0.70;;;0.70;;
23814;SDS011;12088;53.078;8.720;2022-09-09T12:31:54;0.50;;;0.50;;
23814;SDS011;12088;53.078;8.720;2022-09-09T12:34:30;0.43;;;0.43;;
23814;SDS011;12088;53.078;8.720;2022-09-09T12:39:59;1.10;;;1.00;;
23814;SDS011;12088;53.078;8.720;2022-09-09T12:42:28;0.67;;;0.67;;
23814;SDS011;12088;53.078;8.720;2022-09-09T12:44:58;0.70;;;0.70;;
23814;SDS011;12088;53.078;8.720;2022-09-09T12:47:26;0.80;;;0.80;;
23814;SDS011;12088;53.078;8.720;2022-09-09T12:49:54;0.63;;;0.63;;
23814;SDS011;12088;53.078;8.720;2022-09-09T12:54:50;0.63;;;0.63;;
23814;SDS011;12088;53.078;8.720;2022-09-09T12:57:19;0.82;;;0.73;;
23814;SDS011;12088;53.078;8.720;2022-09-09T12:59:47;1.07;;;0.80;;
23814;SDS011;12088;53.078;8.720;2022-09-09T13:02:22;1.23;;;1.10;;
23814;SDS011;12088;53.078;8.720;2022-09-09T13:04:50;0.77;;;0.70;;
23814;SDS011;12088;53.078;8.720;2022-09-09T13:07:17;1.25;;;1.17;;
23814;SDS011;12088;53.078;8.720;2022-09-09T13:09:44;0.75;;;0.75;;
23814;SDS011;12088;53.078;8.720;2022-09-09T13:12:16;1.35;;;1.25;;
23814;SDS011;12088;53.078;8.720;2022-09-09T13:14:48;1.35;;;1.25;;
23814;SDS011;12088;53.078;8.720;2022-09-09T13:17:23;3.30;;;1.00;;
23814;SDS011;12088;53.078;8.720;2022-09-09T13:19:51;2.80;;;1.00;;
23814;SDS011;12088;53.078;8.720;2022-09-09T13:22:34;1.00;;;1.00;;
23814;SDS011;12088;53.078;8.720;2022-09-09T13:25:23;0.65;;;0.65;;
23814;SDS011;12088;53.078;8.720;2022-09-09T13:27:53;1.30;;;1.17;;
23814;SDS011;12088;53.078;8.720;2022-09-09T13:30:25;1.27;;;1.08;;
23814;SDS011;12088;53.078;8.720;2022-09-09T13:33:00;0.88;;;0.88;;
23814;SDS011;12088;53.078;8.720;2022-09-09T13:35:27;1.33;;;1.23;;
23814;SDS011;12088;53.078;8.720;2022-09-09T13:37:52;1.10;;;1.10;;
23814;SDS011;12088;53.078;8.720;2022-09-09T13:40:19;1.55;;;1.42;;
23814;SDS011;12088;53.078;8.720;2022-09-09T13:42:46;2.90;;;1.08;;
23814;SDS011;12088;53.078;8.720;2022-09-09T13:45:23;1.50;;;1.33;;
23814;SDS011;12088;53.078;8.720;2022-09-09T13:47:54;4.05;;;1.38;;
23814;SDS011;12088;53.078;8.720;2022-09-09T13:52:48;4.85;;;1.15;;
23814;SDS011;12088;53.078;8.720;2022-09-09T13:55:18;3.88;;;1.42;;
23814;SDS011;12088;53.078;8.720;2022-09-09T13:58:02;0.90;;;0.90;;
23814;SDS011;12088;53.078;8.720;2022-09-09T14:00:30;1.10;;;1.00;;
23814;SDS011;12088;53.078;8.720;2022-09-09T14:02:57;1.45;;;1.35;;
23814;SDS011;12088;53.078;8.720;2022-09-09T14:05:25;0.70;;;0.70;;
23814;SDS011;12088;53.078;8.720;2022-09-09T14:07:50;1.13;;;1.00;;
23814;SDS011;12088;53.078;8.720;2022-09-09T14:10:16;2.10;;;1.50;;
23814;SDS011;12088;53.078;8.720;2022-09-09T14:12:42;1.33;;;0.82;;
23814;SDS011;12088;53.078;8.720;2022-09-09T14:15:09;0.90;;;0.90;;
23814;SDS011;12088;53.078;8.720;2022-09-09T14:17:35;1.75;;;1.55;;
23814;SDS011;12088;53.078;8.720;2022-09-09T14:20:01;0.80;;;0.80;;
23814;SDS011;12088;53.078;8.720;2022-09-09T14:22:30;1.00;;;1.00;;
23814;SDS011;12088;53.078;8.720;2022-09-09T14:24:56;2.03;;;1.35;;
23814;SDS011;12088;53.078;8.720;2022-09-09T14:27:22;2.97;;;2.03;;
23814;SDS011;12088;53.078;8.720;2022-09-09T14:29:48;0.68;;;0.68;;
23814;SDS011;12088;53.078;8.720;2022-09-09T14:32:13;1.80;;;1.70;;
23814;SDS011;12088;53.078;8.720;2022-09-09T14:34:39;1.37;;;1.27;;
23814;SDS011;12088;53.078;8.720;2022-09-09T14:37:05;2.30;;;1.27;;
23814;SDS011;12088;53.078;8.720;2022-09-09T14:39:31;1.97;;;1.70;;
23814;SDS011;12088;53.078;8.720;2022-09-09T14:41:56;2.50;;;1.67;;
23814;SDS011;12088;53.078;8.720;2022-09-09T14:44:23;2.33;;;1.60;;
23814;SDS011;12088;53.078;8.720;2022-09-09T14:46:48;1.10;;;1.00;;
23814;SDS011;12088;53.078;8.720;2022-09-09T14:49:18;3.90;;;1.00;;
23814;SDS011;12088;53.078;8.720;2022-09-09T14:51:43;1.07;;;1.00;;
23814;SDS011;12088;53.078;8.720;2022-09-09T14:54:09;3.03;;;1.37;;
23814;SDS011;12088;53.078;8.720;2022-09-09T14:56:35;2.43;;;1.23;;
23814;SDS011;12088;53.078;8.720;2022-09-09T14:59:02;0.90;;;0.90;;
23814;SDS011;12088;53.078;8.720;2022-09-09T15:01:27;0.93;;;0.93;;
23814;SDS011;12088;53.078;8.720;2022-09-09T15:03:56;0.60;;;0.60;;
23814;SDS011;12088;53.078;8.720;2022-09-09T15:06:23;2.10;;;1.13;;
23814;SDS011;12088;53.078;8.720;2022-09-09T15:08:50;1.00;;;0.87;;
23814;SDS011;12088;53.078;8.720;2022-09-09T15:11:18;1.00;;;0.90;;
23814;SDS011;12088;53.078;8.720;2022-09-09T15:13:45;0.83;;;0.83;;
23814;SDS011;12088;53.078;8.720;2022-09-09T15:16:18;0.97;;;0.77;;
23814;SDS011;12088;53.078;8.720;2022-09-09T15:18:46;0.90;;;0.90;;
23814;SDS011;12088;53.078;8.720;2022-09-09T15:21:15;1.10;;;1.00;;
23814;SDS011;12088;53.078;8.720;2022-09-09T15:23:44;4.07;;;1.07;;
23814;SDS011;12088;53.078;8.720;2022-09-09T15:26:10;0.60;;;0.60;;
23814;SDS011;12088;53.078;8.720;2022-09-09T15:28:38;0.80;;;0.80;;
23814;SDS011;12088;53.078;8.720;2022-09-09T15:31:06;1.00;;;1.00;;
23814;SDS011;12088;53.078;8.720;2022-09-09T15:33:34;1.20;;;1.20;;
23814;SDS011;12088;53.078;8.720;2022-09-09T15:36:12;0.80;;;0.80;;
23814;SDS011;12088;53.078;8.720;2022-09-09T15:38:45;0.97;;;0.90;;
23814;SDS011;12088;53.078;8.720;2022-09-09T15:41:12;1.50;;;1.27;;
23814;SDS011;12088;53.078;8.720;2022-09-09T15:43:38;0.63;;;0.63;;
23814;SDS011;12088;53.078;8.720;2022-09-09T15:48:42;0.90;;;0.90;;
23814;SDS011;12088;53.078;8.720;2022-09-09T15:51:09;2.17;;;1.73;;
23814;SDS011;12088;53.078;8.720;2022-09-09T15:53:36;0.83;;;0.83;;
23814;SDS011;12088;53.078;8.720;2022-09-09T15:56:04;3.70;;;1.47;;
23814;SDS011;12088;53.078;8.720;2022-09-09T15:58:31;0.97;;;0.97;;
23814;SDS011;12088;53.078;8.720;2022-09-09T16:01:04;0.87;;;0.87;;
23814;SDS011;12088;53.078;8.720;2022-09-09T16:03:36;0.80;;;0.80;;
23814;SDS011;12088;53.078;8.720;2022-09-09T16:06:03;1.00;;;0.77;;
23814;SDS011;12088;53.078;8.720;2022-09-09T16:08:38;1.87;;;1.30;;
23814;SDS011;12088;53.078;8.720;2022-09-09T16:11:09;0.50;;;0.50;;
23814;SDS011;12088;53.078;8.720;2022-09-09T16:13:37;1.27;;;0.77;;
23814;SDS011;12088;53.078;8.720;2022-09-09T16:16:06;0.73;;;0.73;;
23814;SDS011;12088;53.078;8.720;2022-09-09T16:18:35;0.80;;;0.80;;
23814;SDS011;12088;53.078;8.720;2022-09-09T16:21:08;1.00;;;0.90;;
23814;SDS011;12088;53.078;8.720;2022-09-09T16:23:38;0.70;;;0.70;;
23814;SDS011;12088;53.078;8.720;2022-09-09T16:26:04;0.87;;;0.87;;
23814;SDS011;12088;53.078;8.720;2022-09-09T16:28:30;0.90;;;0.90;;
23814;SDS011;12088;53.078;8.720;2022-09-09T16:30:56;0.70;;;0.70;;
23814;SDS011;12088;53.078;8.720;2022-09-09T16:33:23;0.57;;;0.57;;
23814;SDS011;12088;53.078;8.720;2022-09-09T16:35:51;0.73;;;0.73;;
23814;SDS011;12088;53.078;8.720;2022-09-09T16:38:16;0.90;;;0.90;;
23814;SDS011;12088;53.078;8.720;2022-09-09T16:40:42;0.70;;;0.70;;
23814;SDS011;12088;53.078;8.720;2022-09-09T16:43:07;0.70;;;0.70;;
23814;SDS011;12088;53.078;8.720;2022-09-09T16:45:40;0.77;;;0.77;;